createdAt,value
2023-04-17T00:00:31.400Z,85.66
2023-04-17T00:01:33.397Z,85.18
2023-04-17T00:02:39.808Z,86.04
2023-04-17T00:03:42.088Z,85.80
2023-04-17T00:04:45.584Z,85.59
2023-04-17T00:05:49.029Z,85.88
2023-04-17T00:06:53.926Z,85.11
2023-04-17T00:07:57.111Z,85.67
2023-04-17T00:08:59.900Z,85.28
2023-04-17T00:10:01.935Z,85.23
2023-04-17T00:11:08.495Z,85.71
2023-04-17T00:12:10.820Z,85.33
2023-04-17T00:13:13.605Z,85.18
2023-04-17T00:14:15.501Z,85.18
2023-04-17T00:15:18.358Z,85.52
2023-04-17T00:16:20.222Z,84.89
2023-04-17T00:17:23.094Z,85.25
2023-04-17T00:18:24.909Z,85.41
2023-04-17T00:19:27.883Z,85.46
2023-04-17T00:20:30.475Z,85.14
2023-04-17T00:21:34.645Z,85.20
2023-04-17T00:22:37.086Z,84.91
2023-04-17T00:23:39.935Z,84.78
2023-04-17T00:24:41.848Z,85.12
2023-04-17T00:25:44.650Z,84.80
2023-04-17T00:26:46.517Z,84.59
2023-04-17T00:27:50.317Z,84.73
2023-04-17T00:28:52.158Z,84.79
2023-04-17T00:29:55.022Z,84.68
2023-04-17T00:30:58.252Z,84.41
2023-04-17T00:32:01.349Z,84.41
2023-04-17T00:33:03.366Z,83.94
2023-04-17T00:34:06.200Z,83.78
2023-04-17T00:35:08.740Z,84.26
2023-04-17T00:36:13.514Z,84.25
2023-04-17T00:37:16.725Z,83.79
2023-04-17T00:38:19.607Z,83.87
2023-04-17T00:39:21.529Z,84.01
2023-04-17T00:40:24.416Z,84.42
2023-04-17T00:41:27.427Z,84.90
2023-04-17T00:42:30.227Z,84.60
2023-04-17T00:43:32.173Z,84.79
2023-04-17T00:44:35.035Z,84.84
2023-04-17T00:45:37.085Z,85.40
2023-04-17T00:46:41.008Z,84.61
2023-04-17T00:47:42.952Z,84.38
2023-04-17T00:48:46.190Z,84.58
2023-04-17T00:49:48.257Z,85.00
2023-04-17T00:50:51.945Z,84.92
2023-04-17T00:51:54.141Z,84.91
2023-04-17T00:52:59.480Z,84.90
2023-04-17T00:54:01.643Z,84.61
2023-04-17T00:55:06.632Z,84.30
2023-04-17T00:56:08.546Z,84.54
2023-04-17T00:57:11.874Z,84.86
2023-04-17T00:58:13.965Z,84.89
2023-04-17T00:59:18.654Z,84.37
2023-04-17T01:00:22.053Z,84.48
2023-04-17T01:01:24.892Z,84.74
2023-04-17T01:02:27.222Z,84.50
2023-04-17T01:03:33.083Z,84.04
2023-04-17T01:04:35.914Z,83.99
2023-04-17T01:05:39.052Z,83.65
2023-04-17T01:06:41.858Z,83.30
2023-04-17T01:07:45.073Z,83.56
2023-04-17T01:08:49.608Z,83.60
2023-04-17T01:09:53.216Z,84.10
2023-04-17T01:10:55.584Z,84.08
2023-04-17T01:12:16.951Z,83.79
2023-04-17T01:13:19.756Z,83.84
2023-04-17T01:14:21.902Z,83.79
2023-04-17T01:15:25.034Z,83.76
2023-04-17T01:16:27.589Z,83.84
2023-04-17T01:17:30.780Z,83.65
2023-04-17T01:18:32.675Z,83.83
2023-04-17T01:19:35.468Z,83.65
2023-04-17T01:20:37.759Z,83.76
2023-04-17T01:21:40.553Z,83.82
2023-04-17T01:22:42.453Z,83.52
2023-04-17T01:23:48.551Z,83.66
2023-04-17T01:24:51.765Z,84.03
2023-04-17T01:25:54.666Z,84.19
2023-04-17T01:26:58.691Z,83.84
2023-04-17T01:28:01.626Z,84.00
2023-04-17T01:29:04.778Z,84.27
2023-04-17T01:30:09.320Z,84.16
2023-04-17T01:31:18.501Z,83.83
2023-04-17T01:32:21.649Z,83.96
2023-04-17T01:33:24.320Z,83.53
2023-04-17T01:34:27.166Z,83.14
2023-04-17T01:35:29.070Z,83.13
2023-04-17T01:36:32.420Z,82.57
2023-04-17T01:37:34.412Z,82.77
2023-04-17T01:38:37.214Z,83.27
2023-04-17T01:39:39.065Z,83.39
2023-04-17T01:40:43.183Z,83.41
2023-04-17T01:41:45.025Z,83.67
2023-04-17T01:42:48.428Z,83.98
2023-04-17T01:43:50.412Z,84.03
2023-04-17T01:44:53.820Z,84.37
2023-04-17T01:45:56.161Z,84.15
2023-04-17T01:46:58.992Z,84.33
2023-04-17T01:48:01.343Z,84.77
2023-04-17T01:49:04.242Z,84.82
2023-04-17T01:50:09.045Z,85.15
2023-04-17T01:51:11.863Z,85.09
2023-04-17T01:52:13.997Z,85.49
2023-04-17T01:53:16.814Z,85.44
2023-04-17T01:54:18.695Z,85.46
2023-04-17T01:55:21.951Z,86.24
2023-04-17T01:56:26.083Z,86.57
2023-04-17T01:57:29.055Z,86.48
2023-04-17T01:58:31.394Z,86.57
2023-04-17T01:59:34.663Z,86.95
2023-04-17T02:00:36.493Z,86.99
2023-04-17T02:01:40.102Z,86.94
2023-04-17T02:02:42.126Z,86.76
2023-04-17T02:03:45.246Z,87.10
2023-04-17T02:04:47.226Z,87.10
2023-04-17T02:05:50.109Z,86.99
2023-04-17T02:06:52.284Z,87.02
2023-04-17T02:07:55.278Z,86.80
2023-04-17T02:08:57.115Z,86.76
2023-04-17T02:09:59.897Z,86.54
2023-04-17T02:11:02.636Z,86.69
2023-04-17T02:12:07.642Z,86.32
2023-04-17T02:13:10.389Z,86.02
2023-04-17T02:14:16.642Z,85.42
2023-04-17T02:15:18.539Z,85.92
2023-04-17T02:16:22.535Z,85.65
2023-04-17T02:17:24.623Z,85.69
2023-04-17T02:18:27.765Z,85.74
2023-04-17T02:19:29.549Z,85.96
2023-04-17T02:20:32.488Z,85.86
2023-04-17T02:21:34.295Z,85.46
2023-04-17T02:22:37.116Z,85.30
2023-04-17T02:23:39.019Z,85.15
2023-04-17T02:24:41.797Z,84.88
2023-04-17T02:25:43.621Z,84.96
2023-04-17T02:26:46.694Z,85.04
2023-04-17T02:27:49.830Z,84.97
2023-04-17T02:28:52.649Z,84.87
2023-04-17T02:29:54.548Z,84.58
2023-04-17T02:30:57.714Z,84.47
2023-04-17T02:31:59.567Z,84.49
2023-04-17T02:33:03.231Z,84.81
2023-04-17T02:34:06.033Z,84.66
2023-04-17T02:35:09.842Z,84.77
2023-04-17T02:36:11.847Z,84.43
2023-04-17T02:37:17.441Z,84.56
2023-04-17T02:38:19.304Z,84.52
2023-04-17T02:39:22.241Z,85.02
2023-04-17T02:40:24.344Z,84.93
2023-04-17T02:41:32.678Z,85.09
2023-04-17T02:42:34.973Z,84.65
2023-04-17T02:43:40.472Z,84.87
2023-04-17T02:44:42.365Z,84.87
2023-04-17T02:45:45.524Z,84.23
2023-04-17T02:46:48.248Z,84.55
2023-04-17T02:47:51.548Z,84.82
2023-04-17T02:48:54.771Z,84.37
2023-04-17T02:49:56.880Z,84.47
2023-04-17T02:50:59.794Z,84.44
2023-04-17T02:52:02.055Z,84.45
2023-04-17T02:53:05.186Z,84.57
2023-04-17T02:54:07.131Z,84.31
2023-04-17T02:55:10.746Z,84.60
2023-04-17T02:56:14.262Z,84.67
2023-04-17T02:57:17.158Z,84.32
2023-04-17T02:58:19.026Z,84.26
2023-04-17T02:59:23.333Z,84.55
2023-04-17T03:00:26.352Z,84.75
2023-04-17T03:01:29.942Z,84.94
2023-04-17T03:02:32.061Z,85.25
2023-04-17T03:03:38.753Z,85.56
2023-04-17T03:04:44.569Z,85.08
2023-04-17T03:05:47.748Z,84.97
2023-04-17T03:06:49.625Z,84.73
2023-04-17T03:07:53.091Z,84.78
2023-04-17T03:08:54.932Z,85.07
2023-04-17T03:09:58.970Z,85.32
2023-04-17T03:11:01.202Z,85.30
2023-04-17T03:12:05.755Z,85.26
2023-04-17T03:13:07.576Z,85.51
2023-04-17T03:14:10.784Z,85.70
2023-04-17T03:15:14.058Z,85.92
2023-04-17T03:16:16.969Z,85.92
2023-04-17T03:17:21.138Z,85.82
2023-04-17T03:18:24.345Z,85.59
2023-04-17T03:19:26.195Z,85.61
2023-04-17T03:20:29.099Z,85.92
2023-04-17T03:21:31.804Z,86.61
2023-04-17T03:22:35.436Z,86.94
2023-04-17T03:23:37.986Z,86.70
2023-04-17T03:24:42.563Z,87.03
2023-04-17T03:25:45.329Z,87.40
2023-04-17T03:26:49.029Z,86.88
2023-04-17T03:27:54.178Z,87.03
2023-04-17T03:29:00.654Z,87.13
2023-04-17T03:30:02.681Z,87.12
2023-04-17T03:31:08.508Z,87.48
2023-04-17T03:32:11.057Z,87.16
2023-04-17T03:33:13.953Z,87.63
2023-04-17T03:34:16.492Z,87.33
2023-04-17T03:35:19.667Z,87.60
2023-04-17T03:36:22.507Z,87.36
2023-04-17T03:37:24.460Z,87.71
2023-04-17T03:38:27.287Z,87.69
2023-04-17T03:39:29.812Z,87.60
2023-04-17T03:40:33.787Z,87.64
2023-04-17T03:41:35.719Z,87.52
2023-04-17T03:42:39.062Z,87.82
2023-04-17T03:43:41.127Z,87.97
2023-04-17T03:44:46.652Z,88.00
2023-04-17T03:45:48.844Z,87.67
2023-04-17T03:46:53.692Z,88.12
2023-04-17T03:47:56.427Z,87.98
2023-04-17T03:48:59.656Z,88.17
2023-04-17T03:50:02.259Z,87.90
2023-04-17T03:51:10.423Z,88.29
2023-04-17T03:52:13.734Z,88.34
2023-04-17T03:53:17.276Z,88.73
2023-04-17T03:54:19.689Z,88.84
2023-04-17T03:55:25.051Z,89.03
2023-04-17T03:56:27.756Z,88.84
2023-04-17T03:57:30.678Z,89.04
2023-04-17T03:58:33.110Z,89.08
2023-04-17T03:59:36.111Z,89.02
2023-04-17T04:00:38.619Z,89.19
2023-04-17T04:01:46.879Z,89.43
2023-04-17T04:02:54.787Z,89.41
2023-04-17T04:04:03.559Z,89.64
2023-04-17T04:05:07.041Z,89.74
2023-04-17T04:06:10.152Z,89.89
2023-04-17T04:07:11.989Z,90.07
2023-04-17T04:08:15.402Z,90.20
2023-04-17T04:09:22.146Z,90.35
2023-04-17T04:10:25.211Z,90.57
2023-04-17T04:11:27.657Z,90.58
2023-04-17T04:12:31.173Z,90.95
2023-04-17T04:13:34.036Z,90.99
2023-04-17T04:14:41.748Z,91.51
2023-04-17T04:15:44.881Z,91.47
2023-04-17T04:16:52.918Z,91.00
2023-04-17T04:17:57.097Z,91.09
2023-04-17T04:19:00.272Z,91.65
2023-04-17T04:20:02.378Z,91.99
2023-04-17T04:21:05.895Z,92.10
2023-04-17T04:22:13.696Z,91.20
2023-04-17T04:23:27.948Z,91.46
2023-04-17T04:24:30.438Z,91.46
2023-04-17T04:25:34.297Z,91.27
2023-04-17T04:27:04.723Z,91.39
2023-04-17T04:28:10.441Z,91.80
2023-04-17T04:29:13.859Z,91.41
2023-04-17T04:30:38.849Z,92.13
2023-04-17T04:31:51.091Z,92.25
2023-04-17T04:33:01.103Z,91.99
2023-04-17T04:34:04.132Z,91.77
2023-04-17T04:35:07.538Z,92.05
2023-04-17T04:36:14.013Z,91.81
2023-04-17T04:37:22.029Z,92.42
2023-04-17T04:38:30.032Z,92.16
2023-04-17T04:39:34.738Z,91.85
2023-04-17T04:40:38.381Z,92.11
2023-04-17T04:41:46.557Z,91.97
2023-04-17T04:42:51.160Z,92.04
2023-04-17T04:43:57.633Z,92.24
2023-04-17T04:45:00.652Z,92.95
2023-04-17T04:46:05.389Z,92.57
2023-04-17T04:47:12.237Z,93.12
2023-04-17T04:48:15.461Z,93.33
2023-04-17T04:49:18.268Z,92.71
2023-04-17T04:50:20.635Z,93.38
2023-04-17T04:51:24.105Z,92.71
2023-04-17T04:52:26.582Z,92.87
2023-04-17T04:53:33.197Z,93.16
2023-04-17T04:54:35.254Z,93.58
2023-04-17T04:55:40.331Z,93.57
2023-04-17T04:56:44.941Z,93.42
2023-04-17T04:57:53.312Z,93.87
2023-04-17T04:58:56.512Z,94.29
2023-04-17T04:59:59.725Z,93.76
2023-04-17T05:01:07.855Z,94.03
2023-04-17T05:02:19.453Z,94.27
2023-04-17T05:03:25.102Z,94.17
2023-04-17T05:04:30.731Z,94.58
2023-04-17T05:05:36.058Z,94.82
2023-04-17T05:06:42.024Z,94.66
2023-04-17T05:07:44.424Z,94.23
2023-04-17T05:08:51.499Z,94.77
2023-04-17T05:09:54.136Z,94.81
2023-04-17T05:10:57.777Z,95.06
2023-04-17T05:12:00.027Z,95.34
2023-04-17T05:13:03.692Z,94.95
2023-04-17T05:14:06.219Z,95.06
2023-04-17T05:15:13.034Z,94.46
2023-04-17T05:16:15.280Z,94.52
2023-04-17T05:17:18.743Z,94.47
2023-04-17T05:18:21.814Z,93.95
2023-04-17T05:19:26.711Z,93.76
2023-04-17T05:20:36.212Z,94.12
2023-04-17T05:21:39.914Z,93.05
2023-04-17T05:22:44.189Z,92.98
2023-04-17T05:23:48.101Z,92.38
2023-04-17T05:24:51.271Z,92.55
2023-04-17T05:25:53.427Z,92.31
2023-04-17T05:26:57.196Z,92.16
2023-04-17T05:27:59.407Z,91.99
2023-04-17T05:29:03.545Z,92.05
2023-04-17T05:30:10.358Z,91.97
2023-04-17T05:31:13.772Z,91.67
2023-04-17T05:32:17.682Z,91.21
2023-04-17T05:33:29.501Z,91.49
2023-04-17T05:34:37.259Z,91.33
2023-04-17T05:35:41.289Z,90.93
2023-04-17T05:36:43.941Z,90.86
2023-04-17T05:37:46.935Z,91.39
2023-04-17T05:38:50.018Z,91.17
2023-04-17T05:39:52.793Z,91.07
2023-04-17T05:40:56.390Z,91.11
2023-04-17T05:41:58.535Z,92.21
2023-04-17T05:43:08.337Z,92.48
2023-04-17T05:44:12.462Z,92.69
2023-04-17T05:45:14.986Z,91.83
2023-04-17T05:46:18.429Z,91.82
2023-04-17T05:47:20.806Z,91.58
2023-04-17T05:48:24.491Z,91.36
2023-04-17T05:49:27.745Z,90.31
2023-04-17T05:50:31.992Z,89.42
2023-04-17T05:51:33.899Z,90.32
2023-04-17T05:52:39.150Z,90.76
2023-04-17T05:53:44.775Z,88.87
2023-04-17T05:54:46.567Z,89.00
2023-04-17T05:55:49.623Z,89.33
2023-04-17T05:56:51.969Z,88.10
2023-04-17T05:57:58.059Z,87.55
2023-04-17T05:59:00.855Z,86.52
2023-04-17T06:00:10.498Z,85.43
2023-04-17T06:01:20.617Z,83.83
2023-04-17T06:02:26.939Z,82.60
2023-04-17T06:03:30.179Z,83.00
2023-04-17T06:04:43.209Z,82.64
2023-04-17T06:05:47.275Z,81.59
2023-04-17T06:06:50.293Z,80.29
2023-04-17T06:07:52.424Z,79.81
2023-04-17T06:08:57.867Z,78.90
2023-04-17T06:10:02.790Z,79.35
2023-04-17T06:11:06.680Z,79.74
2023-04-17T06:12:15.761Z,79.42
2023-04-17T06:13:19.981Z,79.13
2023-04-17T06:14:24.559Z,79.34
2023-04-17T06:15:28.004Z,79.30
2023-04-17T06:16:29.918Z,78.87
2023-04-17T06:17:32.736Z,78.60
2023-04-17T06:18:35.226Z,78.88
2023-04-17T06:19:38.073Z,78.63
2023-04-17T06:20:42.032Z,79.15
2023-04-17T06:21:46.377Z,78.76
2023-04-17T06:22:49.033Z,77.54
2023-04-17T06:23:52.216Z,77.58
2023-04-17T06:24:54.102Z,78.07
2023-04-17T06:25:57.096Z,77.47
2023-04-17T06:26:58.928Z,77.16
2023-04-17T06:28:01.803Z,76.60
2023-04-17T06:29:06.012Z,75.78
2023-04-17T06:30:10.052Z,75.79
2023-04-17T06:31:23.898Z,75.11
2023-04-17T06:32:28.607Z,74.60
2023-04-17T06:33:30.544Z,74.25
2023-04-17T06:34:33.901Z,73.76
2023-04-17T06:35:36.584Z,73.58
2023-04-17T06:36:57.534Z,73.12
2023-04-17T06:37:59.424Z,73.04
2023-04-17T06:39:02.489Z,72.47
2023-04-17T06:40:07.355Z,72.66
2023-04-17T06:41:10.680Z,72.92
2023-04-17T06:42:16.413Z,72.90
2023-04-17T06:43:18.252Z,73.27
2023-04-17T06:44:21.137Z,73.69
2023-04-17T06:45:23.261Z,73.79
2023-04-17T06:46:26.114Z,73.93
2023-04-17T06:47:30.652Z,74.67
2023-04-17T06:48:32.560Z,74.84
2023-04-17T06:49:36.831Z,75.18
2023-04-17T06:50:38.794Z,75.68
2023-04-17T06:51:45.772Z,75.85
2023-04-17T06:52:48.948Z,76.15
2023-04-17T06:53:52.451Z,75.19
2023-04-17T06:54:54.626Z,73.86
2023-04-17T06:55:57.793Z,73.48
2023-04-17T06:57:00.974Z,73.05
2023-04-17T06:58:04.146Z,73.52
2023-04-17T06:59:06.901Z,72.33
2023-04-17T07:00:10.049Z,72.41
2023-04-17T07:01:13.349Z,73.24
2023-04-17T07:02:15.400Z,73.15
2023-04-17T07:03:18.396Z,72.06
2023-04-17T07:04:21.506Z,71.84
2023-04-17T07:05:24.384Z,72.04
2023-04-17T07:06:26.737Z,71.40
2023-04-17T07:07:30.754Z,71.51
2023-04-17T07:08:34.950Z,71.12
2023-04-17T07:09:37.169Z,69.95
2023-04-17T07:10:39.940Z,69.94
2023-04-17T07:11:41.828Z,69.65
2023-04-17T07:12:44.649Z,69.01
2023-04-17T07:13:46.458Z,68.23
2023-04-17T07:14:49.208Z,67.74
2023-04-17T07:15:53.304Z,67.85
2023-04-17T07:16:55.296Z,67.94
2023-04-17T07:17:58.219Z,67.90
2023-04-17T07:19:01.525Z,67.70
2023-04-17T07:20:05.281Z,67.57
2023-04-17T07:21:08.058Z,66.53
2023-04-17T07:22:10.229Z,66.08
2023-04-17T07:23:12.990Z,66.38
2023-04-17T07:24:17.102Z,66.29
2023-04-17T07:25:19.872Z,66.58
2023-04-17T07:26:22.802Z,66.49
2023-04-17T07:27:24.718Z,66.76
2023-04-17T07:28:27.532Z,66.59
2023-04-17T07:29:30.353Z,66.86
2023-04-17T07:30:32.162Z,66.94
2023-04-17T07:31:35.328Z,66.90
2023-04-17T07:32:37.333Z,66.96
2023-04-17T07:33:40.639Z,67.05
2023-04-17T07:34:42.965Z,67.23
2023-04-17T07:35:45.804Z,67.32
2023-04-17T07:36:49.697Z,67.86
2023-04-17T07:37:51.935Z,67.69
2023-04-17T07:38:54.690Z,67.51
2023-04-17T07:39:58.817Z,67.22
2023-04-17T07:41:00.846Z,67.26
2023-04-17T07:42:06.486Z,67.10
2023-04-17T07:43:09.348Z,67.30
2023-04-17T07:44:11.328Z,67.78
2023-04-17T07:45:14.263Z,67.69
2023-04-17T07:46:17.141Z,67.64
2023-04-17T07:47:20.079Z,67.89
2023-04-17T07:48:22.923Z,67.45
2023-04-17T07:49:25.850Z,67.65
2023-04-17T07:50:29.036Z,67.36
2023-04-17T07:51:32.837Z,66.88
2023-04-17T07:52:34.619Z,67.27
2023-04-17T07:53:38.655Z,66.99
2023-04-17T07:54:40.458Z,66.76
2023-04-17T07:55:44.611Z,66.96
2023-04-17T07:56:46.825Z,66.98
2023-04-17T07:57:51.594Z,67.29
2023-04-17T07:58:54.418Z,67.37
2023-04-17T07:59:57.262Z,67.29
2023-04-17T08:01:00.032Z,67.20
2023-04-17T08:02:02.925Z,67.25
2023-04-17T08:03:06.203Z,67.24
2023-04-17T08:04:09.586Z,67.55
2023-04-17T08:05:12.019Z,67.29
2023-04-17T08:06:15.499Z,67.65
2023-04-17T08:07:18.318Z,67.10
2023-04-17T08:08:22.819Z,67.27
2023-04-17T08:09:25.953Z,66.76
2023-04-17T08:10:29.206Z,66.27
2023-04-17T08:11:42.752Z,66.25
2023-04-17T08:12:52.859Z,66.21
2023-04-17T08:13:56.086Z,65.62
2023-04-17T08:14:59.266Z,65.72
2023-04-17T08:16:02.525Z,65.85
2023-04-17T08:17:04.626Z,65.69
2023-04-17T08:18:07.711Z,65.74
2023-04-17T08:19:09.724Z,65.76
2023-04-17T08:20:12.884Z,66.21
2023-04-17T08:21:14.808Z,66.12
2023-04-17T08:22:19.621Z,66.13
2023-04-17T08:23:22.547Z,66.12
2023-04-17T08:24:24.444Z,66.14
2023-04-17T08:25:27.380Z,66.03
2023-04-17T08:26:29.358Z,65.89
2023-04-17T08:27:33.462Z,65.83
2023-04-17T08:28:36.688Z,65.85
2023-04-17T08:29:39.759Z,65.41
2023-04-17T08:30:42.676Z,65.93
2023-04-17T08:31:44.518Z,66.16
2023-04-17T08:32:49.055Z,66.06
2023-04-17T08:33:59.488Z,66.71
2023-04-17T08:35:11.326Z,66.45
2023-04-17T08:36:14.225Z,65.82
2023-04-17T08:37:17.050Z,65.11
2023-04-17T08:38:19.908Z,64.21
2023-04-17T08:39:21.704Z,65.42
2023-04-17T08:40:26.187Z,65.61
2023-04-17T08:41:35.762Z,65.42
2023-04-17T08:42:43.456Z,64.70
2023-04-17T08:43:49.260Z,65.18
2023-04-17T08:44:52.163Z,64.39
2023-04-17T08:45:55.596Z,63.16
2023-04-17T08:46:58.288Z,62.55
2023-04-17T08:48:01.215Z,62.23
2023-04-17T08:49:03.298Z,61.87
2023-04-17T08:50:09.602Z,62.15
2023-04-17T08:51:11.483Z,62.10
2023-04-17T08:52:14.859Z,62.11
2023-04-17T08:53:18.190Z,60.91
2023-04-17T08:54:22.011Z,60.71
2023-04-17T08:55:28.965Z,60.74
2023-04-17T08:56:31.018Z,60.61
2023-04-17T08:57:34.069Z,60.29
2023-04-17T08:58:38.348Z,60.36
2023-04-17T08:59:43.043Z,60.43
2023-04-17T09:00:46.473Z,60.68
2023-04-17T09:02:01.368Z,60.75
2023-04-17T09:03:05.512Z,61.09
2023-04-17T09:04:08.944Z,61.01
2023-04-17T09:05:19.411Z,61.04
2023-04-17T09:06:22.211Z,61.66
2023-04-17T09:07:29.632Z,61.04
2023-04-17T09:08:32.489Z,60.77
2023-04-17T09:09:48.266Z,60.60
2023-04-17T09:10:52.151Z,60.42
2023-04-17T09:12:10.372Z,60.73
2023-04-17T09:13:15.125Z,59.82
2023-04-17T09:14:32.168Z,59.07
2023-04-17T09:15:35.258Z,59.31
2023-04-17T09:16:53.070Z,57.96
2023-04-17T09:17:56.312Z,59.27
2023-04-17T09:19:06.738Z,59.14
2023-04-17T09:20:12.492Z,59.28
2023-04-17T09:21:18.508Z,59.42
2023-04-17T09:22:21.975Z,59.07
2023-04-17T09:23:24.888Z,59.30
2023-04-17T09:24:34.395Z,59.74
2023-04-17T09:25:37.534Z,60.26
2023-04-17T09:26:40.307Z,59.43
2023-04-17T09:27:42.270Z,60.13
2023-04-17T09:29:07.586Z,58.76
2023-04-17T09:30:13.318Z,59.65
2023-04-17T09:31:28.504Z,59.26
2023-04-17T09:32:31.685Z,59.34
2023-04-17T09:33:34.546Z,58.80
2023-04-17T09:34:40.683Z,58.16
2023-04-17T09:35:43.680Z,57.44
2023-04-17T09:36:45.543Z,57.12
2023-04-17T09:37:49.877Z,57.27
2023-04-17T09:38:52.695Z,57.76
2023-04-17T09:39:59.425Z,57.59
2023-04-17T09:41:02.241Z,57.63
2023-04-17T09:42:06.169Z,57.86
2023-04-17T09:43:10.716Z,57.81
2023-04-17T09:44:25.591Z,57.69
2023-04-17T09:45:36.005Z,57.61
2023-04-17T09:46:38.930Z,57.30
2023-04-17T09:47:44.724Z,57.17
2023-04-17T09:48:47.177Z,56.76
2023-04-17T09:49:52.592Z,56.30
2023-04-17T09:50:56.255Z,56.69
2023-04-17T09:51:58.720Z,56.64
2023-04-17T09:53:02.475Z,56.76
2023-04-17T09:54:05.588Z,56.38
2023-04-17T09:55:10.480Z,56.57
2023-04-17T09:56:13.564Z,56.58
2023-04-17T09:57:16.770Z,56.54
2023-04-17T09:58:19.729Z,56.93
2023-04-17T09:59:23.516Z,58.01
2023-04-17T10:00:28.131Z,58.03
2023-04-17T10:01:32.566Z,57.78
2023-04-17T10:02:35.680Z,58.25
2023-04-17T10:03:38.965Z,58.22
2023-04-17T10:04:41.446Z,58.85
2023-04-17T10:05:44.271Z,58.13
2023-04-17T10:06:46.440Z,58.16
2023-04-17T10:07:49.213Z,57.44
2023-04-17T10:08:51.752Z,56.96
2023-04-17T10:09:54.581Z,56.82
2023-04-17T10:11:04.043Z,56.61
2023-04-17T10:12:07.939Z,56.74
2023-04-17T10:13:12.526Z,56.62
2023-04-17T10:14:20.651Z,56.97
2023-04-17T10:15:24.590Z,56.77
2023-04-17T10:16:35.775Z,57.00
2023-04-17T10:17:38.688Z,57.22
2023-04-17T10:18:41.680Z,57.48
2023-04-17T10:19:45.220Z,57.38
2023-04-17T10:20:48.475Z,57.28
2023-04-17T10:22:25.024Z,56.91
2023-04-17T10:23:33.078Z,57.89
2023-04-17T10:24:35.055Z,58.12
2023-04-17T10:25:37.921Z,58.49
2023-04-17T10:26:39.775Z,58.52
2023-04-17T10:27:47.210Z,58.41
2023-04-17T10:28:49.767Z,59.09
2023-04-17T10:29:56.129Z,58.94
2023-04-17T10:31:01.529Z,58.63
2023-04-17T10:32:26.323Z,58.90
2023-04-17T10:33:29.318Z,59.25
2023-04-17T10:34:35.186Z,58.38
2023-04-17T10:35:38.087Z,58.29
2023-04-17T10:36:50.676Z,57.51
2023-04-17T10:38:03.835Z,57.44
2023-04-17T10:39:14.087Z,57.54
2023-04-17T10:40:21.142Z,57.62
2023-04-17T10:41:24.904Z,57.26
2023-04-17T10:42:29.337Z,56.77
2023-04-17T10:43:32.690Z,56.75
2023-04-17T10:44:34.576Z,56.59
2023-04-17T10:45:54.129Z,56.96
2023-04-17T10:46:57.025Z,57.35
2023-04-17T10:48:00.451Z,57.89
2023-04-17T10:49:05.296Z,57.81
2023-04-17T10:50:10.073Z,57.83
2023-04-17T10:51:41.478Z,58.35
2023-04-17T10:52:45.075Z,58.57
2023-04-17T10:53:47.643Z,58.70
2023-04-17T10:55:08.909Z,59.32
2023-04-17T10:56:12.686Z,59.75
2023-04-17T10:57:15.918Z,59.69
2023-04-17T10:58:19.097Z,60.02
2023-04-17T10:59:23.441Z,60.23
2023-04-17T11:00:30.934Z,60.80
2023-04-17T11:01:40.423Z,61.63
2023-04-17T11:02:45.503Z,62.03
2023-04-17T11:03:49.795Z,62.52
2023-04-17T11:05:07.379Z,63.99
2023-04-17T11:06:09.346Z,63.85
2023-04-17T11:07:13.557Z,64.71
2023-04-17T11:08:15.551Z,65.42
2023-04-17T11:09:21.773Z,65.47
2023-04-17T11:10:24.007Z,66.24
2023-04-17T11:11:42.958Z,67.13
2023-04-17T11:12:49.879Z,67.78
2023-04-17T11:13:51.681Z,68.43
2023-04-17T11:14:54.473Z,69.40
2023-04-17T11:15:56.697Z,69.62
2023-04-17T11:16:59.532Z,70.95
2023-04-17T11:18:03.248Z,71.78
2023-04-17T11:19:06.640Z,72.19
2023-04-17T11:20:11.171Z,73.25
2023-04-17T11:21:13.605Z,74.15
2023-04-17T11:22:19.321Z,74.24
2023-04-17T11:23:22.150Z,75.69
2023-04-17T11:24:24.109Z,76.21
2023-04-17T11:25:30.169Z,76.12
2023-04-17T11:26:32.947Z,77.08
2023-04-17T11:27:34.785Z,77.49
2023-04-17T11:28:38.276Z,77.71
2023-04-17T11:29:40.030Z,78.31
2023-04-17T11:30:45.055Z,79.18
2023-04-17T11:31:48.164Z,78.90
2023-04-17T11:32:51.877Z,78.96
2023-04-17T11:33:54.822Z,79.49
2023-04-17T11:34:59.243Z,79.73
2023-04-17T11:36:02.344Z,80.23
2023-04-17T11:37:05.544Z,80.35
2023-04-17T11:38:11.377Z,80.10
2023-04-17T11:39:16.112Z,80.76
2023-04-17T11:40:23.996Z,80.66
2023-04-17T11:41:36.961Z,80.18
2023-04-17T11:42:44.649Z,80.94
2023-04-17T11:43:47.630Z,81.31
2023-04-17T11:44:49.768Z,81.68
2023-04-17T11:45:54.086Z,81.02
2023-04-17T11:46:58.280Z,81.57
2023-04-17T11:48:02.317Z,81.30
2023-04-17T11:49:05.197Z,81.40
2023-04-17T11:50:09.159Z,81.17
2023-04-17T11:51:13.474Z,80.77
2023-04-17T11:52:17.691Z,80.59
2023-04-17T11:53:20.874Z,80.20
2023-04-17T11:54:26.581Z,80.55
2023-04-17T11:55:31.275Z,80.36
2023-04-17T11:56:34.120Z,79.69
2023-04-17T11:57:41.394Z,80.00
2023-04-17T11:58:48.774Z,79.78
2023-04-17T11:59:50.567Z,79.60
2023-04-17T12:01:05.438Z,80.15
2023-04-17T12:02:09.245Z,79.63
2023-04-17T12:03:34.829Z,79.59
2023-04-17T12:04:38.249Z,79.65
2023-04-17T12:05:42.527Z,79.55
2023-04-17T12:06:45.322Z,79.79
2023-04-17T12:07:47.178Z,80.34
2023-04-17T12:08:51.282Z,80.14
2023-04-17T12:09:57.473Z,80.11
2023-04-17T12:11:00.323Z,80.30
2023-04-17T12:12:04.790Z,80.53
2023-04-17T12:13:08.077Z,81.22
2023-04-17T12:14:12.577Z,81.28
2023-04-17T12:15:14.776Z,80.95
2023-04-17T12:16:17.906Z,81.43
2023-04-17T12:17:21.668Z,81.48
2023-04-17T12:18:24.871Z,81.87
2023-04-17T12:19:29.941Z,81.72
2023-04-17T12:20:34.833Z,82.18
2023-04-17T12:21:38.948Z,81.70
2023-04-17T12:22:40.755Z,82.02
2023-04-17T12:23:44.081Z,82.25
2023-04-17T12:24:46.021Z,82.09
2023-04-17T12:25:48.787Z,82.40
2023-04-17T12:26:52.372Z,82.38
2023-04-17T12:27:56.008Z,82.52
2023-04-17T12:28:58.801Z,82.58
2023-04-17T12:30:00.740Z,82.85
2023-04-17T12:31:03.975Z,83.30
2023-04-17T12:32:06.509Z,83.26
2023-04-17T12:33:09.972Z,83.35
2023-04-17T12:34:12.123Z,83.28
2023-04-17T12:35:15.268Z,83.62
2023-04-17T12:36:18.152Z,82.93
2023-04-17T12:37:21.421Z,82.84
2023-04-17T12:38:24.311Z,82.66
2023-04-17T12:39:26.177Z,82.93
2023-04-17T12:40:29.013Z,82.44
2023-04-17T12:41:31.895Z,82.65
2023-04-17T12:42:42.748Z,82.65
2023-04-17T12:43:51.765Z,82.26
2023-04-17T12:44:53.558Z,82.42
2023-04-17T12:45:58.786Z,82.74
2023-04-17T12:47:00.847Z,83.07
2023-04-17T12:48:03.684Z,82.78
2023-04-17T12:49:05.562Z,83.02
2023-04-17T12:50:09.357Z,82.91
2023-04-17T12:51:12.240Z,83.15
2023-04-17T12:52:14.238Z,83.07
2023-04-17T12:53:18.338Z,83.71
2023-04-17T12:54:20.310Z,83.33
2023-04-17T12:55:23.346Z,83.33
2023-04-17T12:56:26.225Z,83.34
2023-04-17T12:57:28.314Z,83.89
2023-04-17T12:58:31.188Z,83.97
2023-04-17T12:59:32.985Z,83.99
2023-04-17T13:00:36.236Z,84.32
2023-04-17T13:01:38.294Z,84.32
2023-04-17T13:02:41.602Z,84.58
2023-04-17T13:03:44.658Z,84.54
2023-04-17T13:04:47.344Z,85.00
2023-04-17T13:05:52.756Z,85.04
2023-04-17T13:06:54.637Z,84.94
2023-04-17T13:07:57.725Z,85.48
2023-04-17T13:09:00.964Z,85.54
2023-04-17T13:10:03.870Z,85.38
2023-04-17T13:11:05.733Z,85.82
2023-04-17T13:12:08.721Z,85.79
2023-04-17T13:13:10.879Z,85.87
2023-04-17T13:14:15.203Z,85.98
2023-04-17T13:15:18.417Z,85.32
2023-04-17T13:16:20.277Z,86.06
2023-04-17T13:17:23.196Z,86.17
2023-04-17T13:18:26.338Z,86.39
2023-04-17T13:19:28.116Z,86.12
2023-04-17T13:20:31.356Z,86.50
2023-04-17T13:21:33.194Z,86.25
2023-04-17T13:22:36.142Z,86.92
2023-04-17T13:23:39.100Z,86.80
2023-04-17T13:24:42.342Z,86.78
2023-04-17T13:25:45.130Z,86.75
2023-04-17T13:26:50.589Z,87.13
2023-04-17T13:27:55.160Z,87.18
2023-04-17T13:28:57.241Z,86.94
2023-04-17T13:30:00.332Z,86.59
2023-04-17T13:31:02.128Z,86.65
2023-04-17T13:32:05.261Z,87.06
2023-04-17T13:33:08.660Z,87.39
2023-04-17T13:34:10.894Z,87.01
2023-04-17T13:35:14.510Z,87.30
2023-04-17T13:36:16.415Z,87.00
2023-04-17T13:37:19.299Z,87.42
2023-04-17T13:38:21.278Z,86.78
2023-04-17T13:39:24.373Z,86.40
2023-04-17T13:40:30.774Z,86.88
2023-04-17T13:41:33.613Z,86.49
2023-04-17T13:42:36.542Z,85.99
2023-04-17T13:43:39.376Z,86.49
2023-04-17T13:44:43.390Z,86.38
2023-04-17T13:45:45.502Z,86.13
2023-04-17T13:46:48.401Z,86.36